sensor_id;sensor_type;location;lat;lon;timestamp;P1;durP1;ratioP1;P2;durP2;ratioP2
21503;SDS011;10913;51.992;9.228;2023-06-26T00:01:14;8.40;;;7.55;;
21503;SDS011;10913;51.992;9.228;2023-06-26T00:03:39;7.57;;;6.85;;
21503;SDS011;10913;51.992;9.228;2023-06-26T00:06:04;7.85;;;7.10;;
21503;SDS011;10913;51.992;9.228;2023-06-26T00:08:30;7.78;;;6.97;;
21503;SDS011;10913;51.992;9.228;2023-06-26T00:10:56;7.85;;;7.05;;
21503;SDS011;10913;51.992;9.228;2023-06-26T00:13:22;7.80;;;7.07;;
21503;SDS011;10913;51.992;9.228;2023-06-26T00:15:48;6.95;;;6.35;;
21503;SDS011;10913;51.992;9.228;2023-06-26T00:18:15;7.72;;;7.07;;
21503;SDS011;10913;51.992;9.228;2023-06-26T00:20:40;7.53;;;6.82;;
21503;SDS011;10913;51.992;9.228;2023-06-26T00:23:05;7.80;;;7.13;;
21503;SDS011;10913;51.992;9.228;2023-06-26T00:25:32;8.10;;;7.35;;
21503;SDS011;10913;51.992;9.228;2023-06-26T00:27:58;8.07;;;7.32;;
21503;SDS011;10913;51.992;9.228;2023-06-26T00:30:23;7.85;;;7.10;;
21503;SDS011;10913;51.992;9.228;2023-06-26T00:32:48;7.32;;;6.72;;
21503;SDS011;10913;51.992;9.228;2023-06-26T00:35:14;7.40;;;6.72;;
21503;SDS011;10913;51.992;9.228;2023-06-26T00:37:40;7.55;;;6.85;;
21503;SDS011;10913;51.992;9.228;2023-06-26T00:40:05;7.43;;;6.72;;
21503;SDS011;10913;51.992;9.228;2023-06-26T00:42:31;7.40;;;6.63;;
21503;SDS011;10913;51.992;9.228;2023-06-26T00:44:57;8.35;;;6.78;;
21503;SDS011;10913;51.992;9.228;2023-06-26T00:47:22;7.65;;;6.68;;
21503;SDS011;10913;51.992;9.228;2023-06-26T00:49:48;8.95;;;7.03;;
21503;SDS011;10913;51.992;9.228;2023-06-26T00:52:14;7.68;;;6.97;;
21503;SDS011;10913;51.992;9.228;2023-06-26T00:54:39;7.70;;;6.95;;
21503;SDS011;10913;51.992;9.228;2023-06-26T00:57:05;7.90;;;7.10;;
21503;SDS011;10913;51.992;9.228;2023-06-26T00:59:30;7.65;;;7.00;;
21503;SDS011;10913;51.992;9.228;2023-06-26T01:01:55;8.02;;;7.13;;
21503;SDS011;10913;51.992;9.228;2023-06-26T01:04:21;7.40;;;6.70;;
21503;SDS011;10913;51.992;9.228;2023-06-26T01:06:46;7.80;;;7.10;;
21503;SDS011;10913;51.992;9.228;2023-06-26T01:09:17;7.57;;;6.88;;
21503;SDS011;10913;51.992;9.228;2023-06-26T01:11:44;8.05;;;7.30;;
21503;SDS011;10913;51.992;9.228;2023-06-26T01:14:10;7.80;;;7.20;;
21503;SDS011;10913;51.992;9.228;2023-06-26T01:16:35;7.85;;;7.05;;
21503;SDS011;10913;51.992;9.228;2023-06-26T01:19:04;7.75;;;6.97;;
21503;SDS011;10913;51.992;9.228;2023-06-26T01:21:40;8.05;;;7.35;;
21503;SDS011;10913;51.992;9.228;2023-06-26T01:24:17;8.23;;;7.45;;
21503;SDS011;10913;51.992;9.228;2023-06-26T01:26:47;7.60;;;6.97;;
21503;SDS011;10913;51.992;9.228;2023-06-26T01:29:15;7.90;;;6.97;;
21503;SDS011;10913;51.992;9.228;2023-06-26T01:31:43;7.53;;;6.80;;
21503;SDS011;10913;51.992;9.228;2023-06-26T01:34:11;7.50;;;6.80;;
21503;SDS011;10913;51.992;9.228;2023-06-26T01:36:37;7.72;;;7.03;;
21503;SDS011;10913;51.992;9.228;2023-06-26T01:39:03;7.85;;;7.07;;
21503;SDS011;10913;51.992;9.228;2023-06-26T01:41:28;7.43;;;6.72;;
21503;SDS011;10913;51.992;9.228;2023-06-26T01:52:07;8.23;;;7.43;;
21503;SDS011;10913;51.992;9.228;2023-06-26T01:54:37;8.63;;;7.40;;
21503;SDS011;10913;51.992;9.228;2023-06-26T01:57:08;7.53;;;6.82;;
21503;SDS011;10913;51.992;9.228;2023-06-26T01:59:34;7.60;;;6.63;;
21503;SDS011;10913;51.992;9.228;2023-06-26T02:02:02;6.88;;;6.28;;
21503;SDS011;10913;51.992;9.228;2023-06-26T02:04:27;7.55;;;6.72;;
21503;SDS011;10913;51.992;9.228;2023-06-26T02:06:53;6.55;;;5.95;;
21503;SDS011;10913;51.992;9.228;2023-06-26T02:09:19;7.00;;;6.30;;
21503;SDS011;10913;51.992;9.228;2023-06-26T02:11:45;6.50;;;5.90;;
21503;SDS011;10913;51.992;9.228;2023-06-26T02:14:10;7.32;;;6.25;;
21503;SDS011;10913;51.992;9.228;2023-06-26T02:16:37;7.78;;;6.30;;
21503;SDS011;10913;51.992;9.228;2023-06-26T02:19:02;6.70;;;6.00;;
21503;SDS011;10913;51.992;9.228;2023-06-26T02:21:28;6.57;;;5.95;;
21503;SDS011;10913;51.992;9.228;2023-06-26T02:23:53;6.68;;;6.07;;
21503;SDS011;10913;51.992;9.228;2023-06-26T02:26:18;8.02;;;6.30;;
21503;SDS011;10913;51.992;9.228;2023-06-26T02:28:44;6.72;;;6.05;;
21503;SDS011;10913;51.992;9.228;2023-06-26T02:31:09;6.47;;;5.88;;
21503;SDS011;10913;51.992;9.228;2023-06-26T02:33:35;7.00;;;6.28;;
21503;SDS011;10913;51.992;9.228;2023-06-26T02:36:00;7.75;;;6.38;;
21503;SDS011;10913;51.992;9.228;2023-06-26T02:38:26;6.80;;;6.20;;
21503;SDS011;10913;51.992;9.228;2023-06-26T02:40:51;6.85;;;6.10;;
21503;SDS011;10913;51.992;9.228;2023-06-26T02:43:16;6.38;;;5.78;;
21503;SDS011;10913;51.992;9.228;2023-06-26T02:45:42;6.95;;;6.30;;
21503;SDS011;10913;51.992;9.228;2023-06-26T02:48:07;6.72;;;6.13;;
21503;SDS011;10913;51.992;9.228;2023-06-26T02:50:33;7.13;;;6.32;;
21503;SDS011;10913;51.992;9.228;2023-06-26T02:52:58;6.82;;;6.13;;
21503;SDS011;10913;51.992;9.228;2023-06-26T02:55:23;7.07;;;6.38;;
21503;SDS011;10913;51.992;9.228;2023-06-26T02:57:49;7.00;;;6.22;;
21503;SDS011;10913;51.992;9.228;2023-06-26T03:00:14;6.80;;;6.20;;
21503;SDS011;10913;51.992;9.228;2023-06-26T03:02:40;6.90;;;6.20;;
21503;SDS011;10913;51.992;9.228;2023-06-26T03:05:05;7.32;;;6.13;;
21503;SDS011;10913;51.992;9.228;2023-06-26T03:07:31;6.85;;;6.15;;
21503;SDS011;10913;51.992;9.228;2023-06-26T03:09:56;6.85;;;6.15;;
21503;SDS011;10913;51.992;9.228;2023-06-26T03:12:22;7.28;;;6.57;;
21503;SDS011;10913;51.992;9.228;2023-06-26T03:14:47;7.07;;;6.38;;
21503;SDS011;10913;51.992;9.228;2023-06-26T03:17:12;6.82;;;6.22;;
21503;SDS011;10913;51.992;9.228;2023-06-26T03:19:38;7.40;;;6.70;;
21503;SDS011;10913;51.992;9.228;2023-06-26T03:22:03;6.80;;;6.10;;
21503;SDS011;10913;51.992;9.228;2023-06-26T03:24:29;6.70;;;6.10;;
21503;SDS011;10913;51.992;9.228;2023-06-26T03:26:54;6.97;;;6.28;;
21503;SDS011;10913;51.992;9.228;2023-06-26T03:29:20;7.03;;;6.22;;
21503;SDS011;10913;51.992;9.228;2023-06-26T03:31:45;6.93;;;6.25;;
21503;SDS011;10913;51.992;9.228;2023-06-26T03:34:10;6.53;;;5.93;;
21503;SDS011;10913;51.992;9.228;2023-06-26T03:36:36;6.63;;;6.00;;
21503;SDS011;10913;51.992;9.228;2023-06-26T03:39:01;6.95;;;6.35;;
21503;SDS011;10913;51.992;9.228;2023-06-26T03:41:26;7.13;;;6.10;;
21503;SDS011;10913;51.992;9.228;2023-06-26T03:43:52;6.63;;;5.90;;
21503;SDS011;10913;51.992;9.228;2023-06-26T03:46:17;7.00;;;6.30;;
21503;SDS011;10913;51.992;9.228;2023-06-26T03:48:43;6.38;;;5.75;;
21503;SDS011;10913;51.992;9.228;2023-06-26T03:51:08;6.85;;;6.25;;
21503;SDS011;10913;51.992;9.228;2023-06-26T03:53:33;6.40;;;5.80;;
21503;SDS011;10913;51.992;9.228;2023-06-26T03:55:59;6.60;;;6.00;;
21503;SDS011;10913;51.992;9.228;2023-06-26T03:58:24;7.90;;;6.60;;
21503;SDS011;10913;51.992;9.228;2023-06-26T04:00:50;6.82;;;6.13;;
21503;SDS011;10913;51.992;9.228;2023-06-26T04:03:16;7.05;;;6.30;;
21503;SDS011;10913;51.992;9.228;2023-06-26T04:05:42;6.90;;;6.20;;
21503;SDS011;10913;51.992;9.228;2023-06-26T04:08:07;8.43;;;6.88;;
21503;SDS011;10913;51.992;9.228;2023-06-26T04:10:33;7.00;;;6.25;;
21503;SDS011;10913;51.992;9.228;2023-06-26T04:12:59;8.13;;;6.53;;
21503;SDS011;10913;51.992;9.228;2023-06-26T04:15:24;6.53;;;5.97;;
21503;SDS011;10913;51.992;9.228;2023-06-26T04:17:49;6.70;;;6.03;;
21503;SDS011;10913;51.992;9.228;2023-06-26T04:20:15;6.90;;;6.20;;
21503;SDS011;10913;51.992;9.228;2023-06-26T04:22:41;6.82;;;6.22;;
21503;SDS011;10913;51.992;9.228;2023-06-26T04:25:06;7.00;;;6.30;;
21503;SDS011;10913;51.992;9.228;2023-06-26T04:27:32;7.05;;;6.35;;
21503;SDS011;10913;51.992;9.228;2023-06-26T04:29:57;7.35;;;6.15;;
21503;SDS011;10913;51.992;9.228;2023-06-26T04:32:23;7.03;;;6.32;;
21503;SDS011;10913;51.992;9.228;2023-06-26T04:34:48;6.70;;;6.10;;
21503;SDS011;10913;51.992;9.228;2023-06-26T04:37:14;9.23;;;6.15;;
21503;SDS011;10913;51.992;9.228;2023-06-26T04:39:42;6.80;;;6.03;;
21503;SDS011;10913;51.992;9.228;2023-06-26T04:42:08;6.80;;;6.20;;
21503;SDS011;10913;51.992;9.228;2023-06-26T04:44:34;8.23;;;6.20;;
21503;SDS011;10913;51.992;9.228;2023-06-26T04:46:59;6.32;;;5.70;;
21503;SDS011;10913;51.992;9.228;2023-06-26T04:49:25;6.88;;;6.18;;
21503;SDS011;10913;51.992;9.228;2023-06-26T04:51:52;7.60;;;6.00;;
21503;SDS011;10913;51.992;9.228;2023-06-26T04:54:18;6.72;;;6.13;;
21503;SDS011;10913;51.992;9.228;2023-06-26T04:56:43;7.55;;;5.63;;
21503;SDS011;10913;51.992;9.228;2023-06-26T04:59:12;7.05;;;6.38;;
21503;SDS011;10913;51.992;9.228;2023-06-26T05:01:38;8.18;;;6.60;;
21503;SDS011;10913;51.992;9.228;2023-06-26T05:04:04;6.60;;;6.00;;
21503;SDS011;10913;51.992;9.228;2023-06-26T05:06:30;7.22;;;5.90;;
21503;SDS011;10913;51.992;9.228;2023-06-26T05:08:55;7.18;;;6.47;;
21503;SDS011;10913;51.992;9.228;2023-06-26T05:11:21;7.05;;;6.35;;
21503;SDS011;10913;51.992;9.228;2023-06-26T05:13:46;6.55;;;5.93;;
21503;SDS011;10913;51.992;9.228;2023-06-26T05:16:12;7.00;;;6.32;;
21503;SDS011;10913;51.992;9.228;2023-06-26T05:18:37;6.90;;;6.30;;
21503;SDS011;10913;51.992;9.228;2023-06-26T05:21:03;6.43;;;5.82;;
21503;SDS011;10913;51.992;9.228;2023-06-26T05:23:32;7.30;;;6.53;;
21503;SDS011;10913;51.992;9.228;2023-06-26T05:25:59;6.80;;;6.10;;
21503;SDS011;10913;51.992;9.228;2023-06-26T05:28:27;7.10;;;6.40;;
21503;SDS011;10913;51.992;9.228;2023-06-26T05:30:53;7.93;;;7.10;;
21503;SDS011;10913;51.992;9.228;2023-06-26T05:33:23;6.93;;;6.32;;
21503;SDS011;10913;51.992;9.228;2023-06-26T05:35:51;9.25;;;6.80;;
21503;SDS011;10913;51.992;9.228;2023-06-26T05:38:18;8.00;;;7.07;;
21503;SDS011;10913;51.992;9.228;2023-06-26T05:40:43;7.40;;;6.60;;
21503;SDS011;10913;51.992;9.228;2023-06-26T05:43:09;7.35;;;6.60;;
21503;SDS011;10913;51.992;9.228;2023-06-26T05:45:35;7.60;;;6.88;;
21503;SDS011;10913;51.992;9.228;2023-06-26T05:48:00;7.57;;;6.88;;
21503;SDS011;10913;51.992;9.228;2023-06-26T05:50:26;7.28;;;6.57;;
21503;SDS011;10913;51.992;9.228;2023-06-26T05:52:52;7.10;;;6.32;;
21503;SDS011;10913;51.992;9.228;2023-06-26T05:55:17;6.60;;;6.00;;
21503;SDS011;10913;51.992;9.228;2023-06-26T05:57:43;6.90;;;6.30;;
21503;SDS011;10913;51.992;9.228;2023-06-26T06:00:11;6.60;;;6.00;;
21503;SDS011;10913;51.992;9.228;2023-06-26T06:02:37;7.00;;;6.40;;
21503;SDS011;10913;51.992;9.228;2023-06-26T06:05:03;7.18;;;6.50;;
21503;SDS011;10913;51.992;9.228;2023-06-26T06:07:30;6.97;;;6.38;;
21503;SDS011;10913;51.992;9.228;2023-06-26T06:09:57;7.78;;;7.07;;
21503;SDS011;10913;51.992;9.228;2023-06-26T06:12:22;6.78;;;6.18;;
21503;SDS011;10913;51.992;9.228;2023-06-26T06:14:48;7.25;;;6.53;;
21503;SDS011;10913;51.992;9.228;2023-06-26T06:17:13;6.80;;;6.20;;
21503;SDS011;10913;51.992;9.228;2023-06-26T06:19:38;6.60;;;6.00;;
21503;SDS011;10913;51.992;9.228;2023-06-26T06:22:04;6.65;;;5.97;;
21503;SDS011;10913;51.992;9.228;2023-06-26T06:24:29;7.30;;;6.60;;
21503;SDS011;10913;51.992;9.228;2023-06-26T06:26:54;7.25;;;6.60;;
21503;SDS011;10913;51.992;9.228;2023-06-26T06:29:20;6.90;;;6.30;;
21503;SDS011;10913;51.992;9.228;2023-06-26T06:31:45;7.28;;;6.57;;
21503;SDS011;10913;51.992;9.228;2023-06-26T06:34:11;7.35;;;6.68;;
21503;SDS011;10913;51.992;9.228;2023-06-26T06:36:37;6.90;;;6.30;;
21503;SDS011;10913;51.992;9.228;2023-06-26T06:39:03;7.15;;;6.55;;
21503;SDS011;10913;51.992;9.228;2023-06-26T06:41:28;8.02;;;6.78;;
21503;SDS011;10913;51.992;9.228;2023-06-26T06:43:54;7.20;;;6.60;;
21503;SDS011;10913;51.992;9.228;2023-06-26T06:46:19;7.30;;;6.45;;
21503;SDS011;10913;51.992;9.228;2023-06-26T06:48:45;8.00;;;6.60;;
21503;SDS011;10913;51.992;9.228;2023-06-26T06:51:11;7.45;;;6.75;;
21503;SDS011;10913;51.992;9.228;2023-06-26T06:53:37;6.70;;;6.10;;
21503;SDS011;10913;51.992;9.228;2023-06-26T06:56:02;8.02;;;7.03;;
21503;SDS011;10913;51.992;9.228;2023-06-26T06:58:27;7.90;;;6.80;;
21503;SDS011;10913;51.992;9.228;2023-06-26T07:00:53;7.88;;;7.00;;
21503;SDS011;10913;51.992;9.228;2023-06-26T07:03:18;7.15;;;6.45;;
21503;SDS011;10913;51.992;9.228;2023-06-26T07:05:44;6.93;;;6.28;;
21503;SDS011;10913;51.992;9.228;2023-06-26T07:08:10;7.22;;;6.60;;
21503;SDS011;10913;51.992;9.228;2023-06-26T07:10:35;7.63;;;6.93;;
21503;SDS011;10913;51.992;9.228;2023-06-26T07:13:01;7.22;;;6.53;;
21503;SDS011;10913;51.992;9.228;2023-06-26T07:15:27;8.23;;;6.72;;
21503;SDS011;10913;51.992;9.228;2023-06-26T07:17:52;7.40;;;6.70;;
21503;SDS011;10913;51.992;9.228;2023-06-26T07:20:17;7.50;;;6.80;;
21503;SDS011;10913;51.992;9.228;2023-06-26T07:22:43;7.63;;;6.93;;
21503;SDS011;10913;51.992;9.228;2023-06-26T07:25:12;8.02;;;7.22;;
21503;SDS011;10913;51.992;9.228;2023-06-26T07:27:38;8.73;;;6.80;;
21503;SDS011;10913;51.992;9.228;2023-06-26T07:30:04;7.30;;;6.60;;
21503;SDS011;10913;51.992;9.228;2023-06-26T07:32:29;7.85;;;7.03;;
21503;SDS011;10913;51.992;9.228;2023-06-26T07:34:55;8.45;;;7.00;;
21503;SDS011;10913;51.992;9.228;2023-06-26T07:37:21;8.20;;;7.40;;
21503;SDS011;10913;51.992;9.228;2023-06-26T07:39:46;10.82;;;7.22;;
21503;SDS011;10913;51.992;9.228;2023-06-26T07:42:12;8.68;;;7.57;;
21503;SDS011;10913;51.992;9.228;2023-06-26T07:44:38;7.70;;;7.00;;
21503;SDS011;10913;51.992;9.228;2023-06-26T07:47:03;8.02;;;7.22;;
21503;SDS011;10913;51.992;9.228;2023-06-26T07:49:29;8.82;;;7.15;;
21503;SDS011;10913;51.992;9.228;2023-06-26T07:51:54;7.20;;;6.60;;
21503;SDS011;10913;51.992;9.228;2023-06-26T07:54:19;7.68;;;6.95;;
21503;SDS011;10913;51.992;9.228;2023-06-26T07:59:20;8.82;;;7.60;;
21503;SDS011;10913;51.992;9.228;2023-06-26T08:01:48;8.27;;;7.47;;
21503;SDS011;10913;51.992;9.228;2023-06-26T08:04:13;9.00;;;7.97;;
21503;SDS011;10913;51.992;9.228;2023-06-26T08:06:39;8.85;;;7.15;;
21503;SDS011;10913;51.992;9.228;2023-06-26T08:09:05;8.52;;;7.03;;
21503;SDS011;10913;51.992;9.228;2023-06-26T08:11:32;8.18;;;7.32;;
21503;SDS011;10913;51.992;9.228;2023-06-26T08:13:58;9.48;;;7.15;;
21503;SDS011;10913;51.992;9.228;2023-06-26T08:16:23;8.43;;;7.63;;
21503;SDS011;10913;51.992;9.228;2023-06-26T08:18:49;8.45;;;6.78;;
21503;SDS011;10913;51.992;9.228;2023-06-26T08:21:14;7.90;;;7.20;;
21503;SDS011;10913;51.992;9.228;2023-06-26T08:23:39;8.10;;;7.30;;
21503;SDS011;10913;51.992;9.228;2023-06-26T08:26:05;7.80;;;6.95;;
21503;SDS011;10913;51.992;9.228;2023-06-26T08:28:30;7.00;;;6.32;;
21503;SDS011;10913;51.992;9.228;2023-06-26T08:30:55;8.40;;;7.25;;
21503;SDS011;10913;51.992;9.228;2023-06-26T08:33:21;8.88;;;6.47;;
21503;SDS011;10913;51.992;9.228;2023-06-26T08:35:46;9.10;;;7.03;;
21503;SDS011;10913;51.992;9.228;2023-06-26T08:38:11;8.50;;;7.28;;
21503;SDS011;10913;51.992;9.228;2023-06-26T08:40:37;8.55;;;7.53;;
21503;SDS011;10913;51.992;9.228;2023-06-26T08:43:03;7.22;;;6.32;;
21503;SDS011;10913;51.992;9.228;2023-06-26T08:45:29;7.80;;;6.65;;
21503;SDS011;10913;51.992;9.228;2023-06-26T08:47:55;8.50;;;6.75;;
21503;SDS011;10913;51.992;9.228;2023-06-26T08:50:24;9.68;;;7.35;;
21503;SDS011;10913;51.992;9.228;2023-06-26T08:53:04;7.60;;;6.72;;
21503;SDS011;10913;51.992;9.228;2023-06-26T08:55:35;7.88;;;7.00;;
21503;SDS011;10913;51.992;9.228;2023-06-26T08:58:03;9.35;;;7.57;;
21503;SDS011;10913;51.992;9.228;2023-06-26T09:00:29;7.55;;;6.75;;
21503;SDS011;10913;51.992;9.228;2023-06-26T09:02:56;9.13;;;7.97;;
21503;SDS011;10913;51.992;9.228;2023-06-26T09:05:22;9.48;;;7.32;;
21503;SDS011;10913;51.992;9.228;2023-06-26T09:07:47;7.80;;;7.00;;
21503;SDS011;10913;51.992;9.228;2023-06-26T09:10:12;7.75;;;6.68;;
21503;SDS011;10913;51.992;9.228;2023-06-26T09:12:38;7.88;;;7.00;;
21503;SDS011;10913;51.992;9.228;2023-06-26T09:15:05;7.55;;;6.47;;
21503;SDS011;10913;51.992;9.228;2023-06-26T09:17:33;7.28;;;6.13;;
21503;SDS011;10913;51.992;9.228;2023-06-26T09:20:03;10.65;;;7.30;;
21503;SDS011;10913;51.992;9.228;2023-06-26T09:22:29;9.40;;;6.32;;
21503;SDS011;10913;51.992;9.228;2023-06-26T09:24:58;8.55;;;6.95;;
21503;SDS011;10913;51.992;9.228;2023-06-26T09:27:23;7.82;;;6.72;;
21503;SDS011;10913;51.992;9.228;2023-06-26T09:29:49;8.48;;;7.47;;
21503;SDS011;10913;51.992;9.228;2023-06-26T09:32:15;7.95;;;6.50;;
21503;SDS011;10913;51.992;9.228;2023-06-26T09:34:41;12.30;;;7.72;;
21503;SDS011;10913;51.992;9.228;2023-06-26T09:37:11;10.88;;;7.82;;
21503;SDS011;10913;51.992;9.228;2023-06-26T09:39:37;10.60;;;7.68;;
21503;SDS011;10913;51.992;9.228;2023-06-26T09:42:02;9.50;;;7.97;;
21503;SDS011;10913;51.992;9.228;2023-06-26T09:44:30;11.27;;;8.27;;
21503;SDS011;10913;51.992;9.228;2023-06-26T09:46:56;8.30;;;7.45;;
21503;SDS011;10913;51.992;9.228;2023-06-26T09:49:22;8.98;;;7.53;;
21503;SDS011;10913;51.992;9.228;2023-06-26T09:51:48;8.05;;;7.25;;
21503;SDS011;10913;51.992;9.228;2023-06-26T09:54:16;10.30;;;8.10;;
21503;SDS011;10913;51.992;9.228;2023-06-26T09:56:45;9.95;;;6.68;;
21503;SDS011;10913;51.992;9.228;2023-06-26T09:59:10;8.95;;;7.80;;
21503;SDS011;10913;51.992;9.228;2023-06-26T10:01:40;8.07;;;6.97;;
21503;SDS011;10913;51.992;9.228;2023-06-26T10:04:07;8.57;;;6.63;;
21503;SDS011;10913;51.992;9.228;2023-06-26T10:06:36;11.02;;;7.20;;
21503;SDS011;10913;51.992;9.228;2023-06-26T10:09:03;10.85;;;7.32;;
21503;SDS011;10913;51.992;9.228;2023-06-26T10:11:53;12.98;;;7.93;;
21503;SDS011;10913;51.992;9.228;2023-06-26T10:14:25;13.75;;;8.45;;
21503;SDS011;10913;51.992;9.228;2023-06-26T10:16:52;10.90;;;7.40;;
21503;SDS011;10913;51.992;9.228;2023-06-26T10:19:23;7.53;;;6.78;;
21503;SDS011;10913;51.992;9.228;2023-06-26T10:21:54;11.13;;;7.18;;
21503;SDS011;10913;51.992;9.228;2023-06-26T10:24:20;9.32;;;6.75;;
21503;SDS011;10913;51.992;9.228;2023-06-26T10:26:48;12.43;;;7.25;;
21503;SDS011;10913;51.992;9.228;2023-06-26T10:29:17;9.27;;;6.78;;
21503;SDS011;10913;51.992;9.228;2023-06-26T10:31:54;10.48;;;6.82;;
21503;SDS011;10913;51.992;9.228;2023-06-26T10:34:22;8.10;;;7.03;;
21503;SDS011;10913;51.992;9.228;2023-06-26T10:36:48;9.60;;;6.60;;
21503;SDS011;10913;51.992;9.228;2023-06-26T10:39:24;8.63;;;6.32;;
21503;SDS011;10913;51.992;9.228;2023-06-26T10:41:50;8.63;;;6.43;;
21503;SDS011;10913;51.992;9.228;2023-06-26T10:44:19;8.93;;;6.20;;
21503;SDS011;10913;51.992;9.228;2023-06-26T10:46:49;9.35;;;6.68;;
21503;SDS011;10913;51.992;9.228;2023-06-26T10:49:19;9.50;;;6.15;;
21503;SDS011;10913;51.992;9.228;2023-06-26T10:51:54;8.13;;;5.53;;
21503;SDS011;10913;51.992;9.228;2023-06-26T10:54:22;10.32;;;6.22;;
21503;SDS011;10913;51.992;9.228;2023-06-26T10:56:54;8.25;;;5.70;;
21503;SDS011;10913;51.992;9.228;2023-06-26T10:59:26;8.85;;;5.70;;
21503;SDS011;10913;51.992;9.228;2023-06-26T11:02:02;7.35;;;5.55;;
21503;SDS011;10913;51.992;9.228;2023-06-26T11:09:53;7.35;;;5.32;;
21503;SDS011;10913;51.992;9.228;2023-06-26T11:15:10;6.95;;;5.82;;
21503;SDS011;10913;51.992;9.228;2023-06-26T11:17:37;6.90;;;5.88;;
21503;SDS011;10913;51.992;9.228;2023-06-26T11:20:04;6.82;;;5.45;;
21503;SDS011;10913;51.992;9.228;2023-06-26T11:22:33;7.55;;;5.18;;
21503;SDS011;10913;51.992;9.228;2023-06-26T11:25:01;7.80;;;5.47;;
21503;SDS011;10913;51.992;9.228;2023-06-26T11:30:05;8.50;;;5.57;;
21503;SDS011;10913;51.992;9.228;2023-06-26T11:32:31;7.93;;;5.68;;
21503;SDS011;10913;51.992;9.228;2023-06-26T11:35:00;7.75;;;5.75;;
21503;SDS011;10913;51.992;9.228;2023-06-26T11:37:25;7.80;;;5.47;;
21503;SDS011;10913;51.992;9.228;2023-06-26T11:39:51;7.95;;;5.97;;
21503;SDS011;10913;51.992;9.228;2023-06-26T11:42:19;7.07;;;5.60;;
21503;SDS011;10913;51.992;9.228;2023-06-26T11:44:46;7.60;;;5.57;;
21503;SDS011;10913;51.992;9.228;2023-06-26T11:47:15;8.00;;;5.80;;
21503;SDS011;10913;51.992;9.228;2023-06-26T11:49:46;9.60;;;5.85;;
21503;SDS011;10913;51.992;9.228;2023-06-26T11:52:12;6.22;;;5.13;;
21503;SDS011;10913;51.992;9.228;2023-06-26T11:54:38;7.50;;;5.38;;
21503;SDS011;10913;51.992;9.228;2023-06-26T11:57:04;8.55;;;5.68;;
21503;SDS011;10913;51.992;9.228;2023-06-26T11:59:36;7.75;;;5.63;;
21503;SDS011;10913;51.992;9.228;2023-06-26T12:02:07;6.70;;;5.80;;
21503;SDS011;10913;51.992;9.228;2023-06-26T12:04:38;7.45;;;4.90;;
21503;SDS011;10913;51.992;9.228;2023-06-26T12:07:06;9.38;;;5.18;;
21503;SDS011;10913;51.992;9.228;2023-06-26T12:09:34;5.63;;;4.53;;
21503;SDS011;10913;51.992;9.228;2023-06-26T12:12:07;6.20;;;4.75;;
21503;SDS011;10913;51.992;9.228;2023-06-26T12:14:34;6.40;;;4.93;;
21503;SDS011;10913;51.992;9.228;2023-06-26T12:17:08;6.32;;;4.65;;
21503;SDS011;10913;51.992;9.228;2023-06-26T12:19:37;5.80;;;4.30;;
21503;SDS011;10913;51.992;9.228;2023-06-26T12:22:07;5.90;;;4.28;;
21503;SDS011;10913;51.992;9.228;2023-06-26T12:24:33;5.20;;;3.88;;
21503;SDS011;10913;51.992;9.228;2023-06-26T12:27:02;6.88;;;4.30;;
21503;SDS011;10913;51.992;9.228;2023-06-26T12:29:31;4.88;;;3.80;;
21503;SDS011;10913;51.992;9.228;2023-06-26T12:31:58;5.32;;;3.95;;
21503;SDS011;10913;51.992;9.228;2023-06-26T12:34:26;4.95;;;3.70;;
21503;SDS011;10913;51.992;9.228;2023-06-26T12:36:53;5.93;;;3.90;;
21503;SDS011;10913;51.992;9.228;2023-06-26T12:39:19;4.20;;;3.55;;
21503;SDS011;10913;51.992;9.228;2023-06-26T12:41:49;5.90;;;3.88;;
21503;SDS011;10913;51.992;9.228;2023-06-26T12:46:54;8.27;;;3.70;;
21503;SDS011;10913;51.992;9.228;2023-06-26T12:49:28;4.30;;;3.45;;
21503;SDS011;10913;51.992;9.228;2023-06-26T12:52:00;5.00;;;4.25;;
21503;SDS011;10913;51.992;9.228;2023-06-26T12:54:26;5.35;;;3.90;;
21503;SDS011;10913;51.992;9.228;2023-06-26T12:56:52;4.78;;;3.30;;
21503;SDS011;10913;51.992;9.228;2023-06-26T12:59:17;3.60;;;3.10;;
21503;SDS011;10913;51.992;9.228;2023-06-26T13:01:43;3.70;;;3.28;;
21503;SDS011;10913;51.992;9.228;2023-06-26T13:04:08;5.57;;;3.13;;
21503;SDS011;10913;51.992;9.228;2023-06-26T13:06:34;5.65;;;3.25;;
21503;SDS011;10913;51.992;9.228;2023-06-26T13:09:01;3.35;;;2.70;;
21503;SDS011;10913;51.992;9.228;2023-06-26T13:11:30;4.45;;;3.10;;
21503;SDS011;10913;51.992;9.228;2023-06-26T13:13:56;3.10;;;2.80;;
21503;SDS011;10913;51.992;9.228;2023-06-26T13:16:21;3.15;;;2.60;;
21503;SDS011;10913;51.992;9.228;2023-06-26T13:18:47;4.65;;;2.83;;
21503;SDS011;10913;51.992;9.228;2023-06-26T13:21:13;4.03;;;2.72;;
21503;SDS011;10913;51.992;9.228;2023-06-26T13:23:39;5.35;;;2.83;;
21503;SDS011;10913;51.992;9.228;2023-06-26T13:26:04;3.05;;;2.70;;
21503;SDS011;10913;51.992;9.228;2023-06-26T13:28:30;2.90;;;2.60;;
21503;SDS011;10913;51.992;9.228;2023-06-26T13:30:55;3.65;;;2.70;;
21503;SDS011;10913;51.992;9.228;2023-06-26T13:33:21;3.15;;;2.60;;
21503;SDS011;10913;51.992;9.228;2023-06-26T13:35:46;2.60;;;2.40;;
21503;SDS011;10913;51.992;9.228;2023-06-26T13:38:11;3.83;;;2.70;;
21503;SDS011;10913;51.992;9.228;2023-06-26T13:40:37;2.63;;;2.33;;
21503;SDS011;10913;51.992;9.228;2023-06-26T13:43:02;3.58;;;2.65;;
21503;SDS011;10913;51.992;9.228;2023-06-26T13:45:28;3.53;;;2.47;;
21503;SDS011;10913;51.992;9.228;2023-06-26T13:47:54;3.05;;;2.72;;
21503;SDS011;10913;51.992;9.228;2023-06-26T13:50:19;4.88;;;2.70;;
21503;SDS011;10913;51.992;9.228;2023-06-26T13:52:45;3.25;;;2.45;;
21503;SDS011;10913;51.992;9.228;2023-06-26T13:55:10;3.80;;;2.53;;
21503;SDS011;10913;51.992;9.228;2023-06-26T13:57:36;3.97;;;2.40;;
21503;SDS011;10913;51.992;9.228;2023-06-26T14:00:06;2.95;;;2.50;;
21503;SDS011;10913;51.992;9.228;2023-06-26T14:02:34;5.25;;;2.55;;
21503;SDS011;10913;51.992;9.228;2023-06-26T14:04:59;3.92;;;2.72;;
21503;SDS011;10913;51.992;9.228;2023-06-26T14:07:25;3.55;;;2.30;;
21503;SDS011;10913;51.992;9.228;2023-06-26T14:09:50;3.13;;;2.63;;
21503;SDS011;10913;51.992;9.228;2023-06-26T14:12:15;3.95;;;2.30;;
21503;SDS011;10913;51.992;9.228;2023-06-26T14:14:41;2.75;;;2.30;;
21503;SDS011;10913;51.992;9.228;2023-06-26T14:17:07;3.03;;;2.53;;
21503;SDS011;10913;51.992;9.228;2023-06-26T14:19:34;2.70;;;2.50;;
21503;SDS011;10913;51.992;9.228;2023-06-26T14:21:59;2.67;;;2.28;;
21503;SDS011;10913;51.992;9.228;2023-06-26T14:24:26;4.13;;;2.60;;
21503;SDS011;10913;51.992;9.228;2023-06-26T14:26:51;3.42;;;2.65;;
21503;SDS011;10913;51.992;9.228;2023-06-26T14:29:17;2.95;;;2.58;;
21503;SDS011;10913;51.992;9.228;2023-06-26T14:31:44;4.63;;;2.53;;
21503;SDS011;10913;51.992;9.228;2023-06-26T14:34:09;3.25;;;2.60;;
21503;SDS011;10913;51.992;9.228;2023-06-26T14:36:35;3.90;;;2.65;;
21503;SDS011;10913;51.992;9.228;2023-06-26T14:39:00;3.08;;;2.65;;
21503;SDS011;10913;51.992;9.228;2023-06-26T14:41:25;2.40;;;2.20;;
21503;SDS011;10913;51.992;9.228;2023-06-26T14:43:51;3.42;;;2.58;;
21503;SDS011;10913;51.992;9.228;2023-06-26T14:46:17;3.42;;;2.50;;
21503;SDS011;10913;51.992;9.228;2023-06-26T14:48:43;3.17;;;2.70;;
21503;SDS011;10913;51.992;9.228;2023-06-26T14:51:08;3.83;;;2.50;;
21503;SDS011;10913;51.992;9.228;2023-06-26T14:53:34;3.85;;;2.63;;
21503;SDS011;10913;51.992;9.228;2023-06-26T14:55:59;3.83;;;2.70;;
21503;SDS011;10913;51.992;9.228;2023-06-26T14:58:24;6.03;;;2.30;;
21503;SDS011;10913;51.992;9.228;2023-06-26T15:00:50;3.28;;;2.50;;
21503;SDS011;10913;51.992;9.228;2023-06-26T15:03:15;5.03;;;2.65;;
21503;SDS011;10913;51.992;9.228;2023-06-26T15:05:40;2.95;;;2.33;;
21503;SDS011;10913;51.992;9.228;2023-06-26T15:08:06;2.47;;;2.20;;